• Join FlightAware (Why Join?)
  • Login
  • US Flag 
12:00AM EDT


 

Airport Tracker/Info


-or-


 

Live Flight TrackerFlight Track Log ✈ SWA2182 ✈ 13-Jul-2013 ✈ KMCO - KBDL

Flight Track Log - Related Links

Times and Time Zones

All times are in EDT time to prevent confusion due to time zone crossing. See the SWA2182 flight status page for this flight to view local times or setup timezone preferences in your user account.

Time Position Orientation Groundspeed Altitude Reporting Facility
EDT Latitude Longitude Course Direction KTS MPH feet Rate Location/Type
08:15AM 28.4000 -81.3000 147° Southeast 152 175 800  Level Orlando TRACON
08:17AM 28.3333 -81.2500 147° Southeast 235 270 4,400 2,880 Climbing Orlando TRACON
08:18AM 28.3667 -81.1833 60° Northeast 288 331 8,100 2,880 Climbing Orlando TRACON
08:20AM 28.5839 -81.2378 348° North 328 377 14,800 2,580 Climbing Jacksonville Center
08:21AM 28.6928 -81.2714 345° North 362 417 17,300 2,520 Climbing Jacksonville Center
08:22AM 28.8036 -81.3028 346° North 391 450 19,900 2,460 Climbing Jacksonville Center
08:23AM 28.9189 -81.3364 346° North 406 467 22,300 2,220 Climbing Jacksonville Center
08:24AM 29.0361 -81.3725 345° North 436 502 24,400 1,860 Climbing Jacksonville Center
08:25AM 29.1617 -81.3969 350° North 446 513 26,100 1,680 Climbing Jacksonville Center
08:26AM 29.2933 -81.4092 355° North 466 536 27,800 1,620 Climbing Jacksonville Center
08:27AM 29.4125 -81.4217 355° North 480 552 29,400 1,860 Climbing Jacksonville Center
08:28AM 29.5422 -81.4342 355° North 480 552 31,600 1,920 Climbing Jacksonville Center
08:29AM 29.6717 -81.4464 355° North 475 547 33,300 1,680 Climbing Jacksonville Center
08:30AM 29.8014 -81.4614 354° North 470 541 35,000 1,560 Climbing Jacksonville Center
08:31AM 29.9308 -81.4714 356° North 464 534 36,500 960 Climbing Jacksonville Center
08:32AM 30.0731 -81.4836 356° North 464 534 37,000 240 Climbing Jacksonville Center
08:33AM 30.2003 -81.4842 360° North 464 534 37,000  Level Jacksonville Center
08:34AM 30.3317 -81.4775 North 459 528 37,000 360 Level Jacksonville Center
08:35AM 30.4633 -81.4706 North 459 528 37,800 900 Climbing Jacksonville Center
08:36AM 30.5906 -81.4639 North 459 528 38,800 600 Climbing Jacksonville Center
08:37AM 30.7178 -81.4619 North 459 528 39,000 60 Climbing Jacksonville Center
08:38AM 30.8492 -81.4553 North 459 528 39,000  Level Jacksonville Center
08:39AM 30.9786 -81.4508 North 459 528 39,000  Level Jacksonville Center
08:40AM 31.1014 -81.3981 20° North 451 519 39,000  Level Jacksonville Center
08:41AM 31.2089 -81.3186 32° Northeast 448 516 39,000  Level Jacksonville Center
08:42AM 31.3186 -81.2389 32° Northeast 463 533 39,000  Level Jacksonville Center
08:43AM 31.4239 -81.1567 34° Northeast 463 533 39,000  Level Jacksonville Center
08:44AM 31.5231 -81.0842 32° Northeast 452 520 39,000  Level Jacksonville Center
08:45AM 31.6408 -80.9939 33° Northeast 452 520 39,000  Level Jacksonville Center
08:46AM 31.7481 -80.9136 32° Northeast 452 520 39,000  Level Jacksonville Center
08:47AM 31.8575 -80.8306 33° Northeast 452 520 39,000  Level Jacksonville Center
08:48AM 31.9667 -80.7497 32° Northeast 452 520 39,000  Level Jacksonville Center
08:49AM 32.0658 -80.6764 32° Northeast 462 532 39,000  Level Jacksonville Center
08:50AM 32.1853 -80.5853 33° Northeast 462 532 39,000  Level Jacksonville Center
08:51AM 32.2964 -80.5014 33° Northeast 462 532 39,000  Level Jacksonville Center
08:52AM 32.4053 -80.4172 33° Northeast 468 539 39,000  Level Jacksonville Center
08:53AM 32.5122 -80.3331 34° Northeast 463 533 39,000  Level Jacksonville Center
08:54AM 32.6131 -80.2561 33° Northeast 463 533 39,000  Level Jacksonville Center
08:55AM 32.7219 -80.1714 33° Northeast 463 533 39,000  Level Jacksonville Center
08:56AM 32.8306 -80.0842 34° Northeast 463 533 39,000  Level Jacksonville Center
08:57AM 32.9414 -79.9992 33° Northeast 468 539 39,000  Level Jacksonville Center
08:58AM 33.0544 -79.9211 30° Northeast 473 544 39,000  Level Jacksonville Center
08:59AM 33.1650 -79.8406 31° Northeast 468 539 39,000  Level Jacksonville Center
09:00AM 33.2739 -79.7622 31° Northeast 461 531 39,000  Level Jacksonville Center
09:01AM 33.3825 -79.6814 32° Northeast 461 531 39,000  Level Jacksonville Center
09:02AM 33.4931 -79.6000 32° Northeast 461 531 39,000  Level Jacksonville Center
09:03AM 33.6036 -79.5211 31° Northeast 461 531 39,000  Level Jacksonville Center
09:04AM 33.7200 -79.4319 32° Northeast 461 531 39,000  Level Jacksonville Center
09:05AM 33.8325 -79.3500 31° Northeast 456 525 39,000  Level Jacksonville Center
09:06AM 33.9408 -79.2703 31° Northeast 456 525 39,000  Level Jacksonville Center
09:08AM 34.1450 -79.1172 32° Northeast 454 522 39,000  Level Washington Center
09:09AM 34.2536 -79.0367 32° Northeast 454 522 39,000  Level Washington Center
09:10AM 34.3625 -78.9556 32° Northeast 459 528 39,000  Level Washington Center
09:11AM 34.4733 -78.8719 32° Northeast 459 528 39,000  Level Washington Center
09:12AM 34.5842 -78.7856 33° Northeast 464 534 39,000  Level Washington Center
09:13AM 34.6947 -78.6989 33° Northeast 464 534 39,000  Level Washington Center
09:14AM 34.7928 -78.6219 33° Northeast 469 540 39,000  Level Washington Center
09:15AM 34.9097 -78.5325 32° Northeast 463 533 39,000  Level Washington Center
09:16AM 35.0181 -78.4503 32° Northeast 458 527 39,000  Level Washington Center
09:17AM 35.1244 -78.3650 33° Northeast 458 527 39,000  Level Washington Center
09:18AM 35.2306 -78.2847 32° Northeast 458 527 39,000  Level Washington Center
09:19AM 35.3389 -78.2019 32° Northeast 458 527 39,000  Level Washington Center
09:20AM 35.4428 -78.1211 32° Northeast 458 527 39,000  Level Washington Center
09:21AM 35.5511 -78.0353 33° Northeast 458 527 39,000  Level Washington Center
09:22AM 35.6550 -77.9567 32° Northeast 452 520 39,000  Level Washington Center
09:23AM 35.7522 -77.8828 32° Northeast 447 514 39,000  Level Washington Center
09:24AM 35.8561 -77.8011 32° Northeast 447 514 39,000  Level Washington Center
09:25AM 35.9597 -77.7192 33° Northeast 447 514 39,000  Level Washington Center
09:26AM 36.0594 -77.6294 36° Northeast 447 514 39,000  Level Washington Center
09:27AM 36.1592 -77.5369 37° Northeast 447 514 39,000  Level Washington Center
09:28AM 36.2544 -77.4492 37° Northeast 442 509 39,000  Level Washington Center
09:29AM 36.3619 -77.3717 30° Northeast 437 503 39,000  Level Washington Center
09:30AM 36.4675 -77.2914 31° Northeast 437 503 39,000  Level Washington Center
09:31AM 36.5750 -77.2136 30° Northeast 437 503 39,000  Level Washington Center
09:32AM 36.6803 -77.1356 31° Northeast 437 503 39,000  Level Washington Center
09:33AM 36.7856 -77.0547 32° Northeast 442 509 39,000  Level Washington Center
09:34AM 36.8908 -76.9761 31° Northeast 442 509 39,000  Level Washington Center
09:35AM 36.9981 -76.8947 31° Northeast 442 509 39,000  Level Washington Center
09:36AM 37.1158 -76.8083 30° Northeast 442 509 39,000  Level Washington Center
09:37AM 37.2208 -76.7264 32° Northeast 437 503 39,000  Level Washington Center
09:38AM 37.3303 -76.6444 31° Northeast 442 509 39,000  Level Washington Center
09:39AM 37.4372 -76.5622 31° Northeast 442 509 39,000  Level Washington Center
09:40AM 37.5483 -76.4797 30° Northeast 452 520 39,000  Level Washington Center
09:41AM 37.6533 -76.3997 31° Northeast 447 514 39,000  Level Washington Center
09:42AM 37.7600 -76.3194 31° Northeast 447 514 39,000  Level Washington Center
09:43AM 37.8669 -76.2361 32° Northeast 447 514 39,000  Level Washington Center
09:44AM 37.9633 -76.1633 31° Northeast 452 520 39,000  Level Washington Center
09:45AM 38.0678 -76.0822 31° Northeast 447 514 39,000  Level Washington Center
09:46AM 38.1725 -76.0011 31° Northeast 447 514 39,000  Level Washington Center
09:47AM 38.2792 -75.9197 31° Northeast 452 520 39,000  Level Washington Center
09:48AM 38.3836 -75.8353 32° Northeast 447 514 39,000  Level Washington Center
09:49AM 38.4900 -75.7614 29° Northeast 447 514 39,000  Level Washington Center
09:50AM 38.5942 -75.6714 34° Northeast 447 514 39,000  Level Washington Center
09:51AM 38.7006 -75.5889 31° Northeast 447 514 39,000  Level Washington Center
09:52AM 38.8214 -75.5011 30° Northeast 453 521 39,000  Level Washington Center
09:53AM 38.9278 -75.4128 33° Northeast 453 521 39,000  Level Washington Center
09:54AM 39.0339 -75.3297 31° Northeast 453 521 39,000  Level Washington Center
09:55AM 39.1378 -75.2436 33° Northeast 447 514 39,000  Level Washington Center
09:56AM 39.2417 -75.1600 32° Northeast 447 514 39,000 -480 Level Washington Center
09:57AM 39.3414 -75.0656 36° Northeast 447 514 38,100 -900 Descending Washington Center
09:58AM 39.4325 -74.9547 43° Northeast 442 509 37,200 -420 Descending Washington Center
10:00AM 39.5936 -74.7633 42° Northeast 472 543 37,000 -120 Descending New York Center
10:01AM 39.6761 -74.6656 42° Northeast 446 513 37,000 -1,140 Level New York Center
10:02AM 39.7758 -74.5469 42° Northeast 434 499 34,800 -2,340 Descending New York Center
10:03AM 39.8692 -74.4331 43° Northeast 434 499 32,400 -2,340 Descending New York Center
10:04AM 39.9578 -74.3292 42° Northeast 434 499 30,300 -2,100 Descending New York Center
10:05AM 40.0442 -74.2253 43° Northeast 429 494 28,200 -2,040 Descending New York Center
10:06AM 40.1286 -74.1208 43° Northeast 424 488 26,200 -1,620 Descending New York Center
10:07AM 40.2128 -74.0217 42° Northeast 417 480 25,000 -600 Descending New York Center
10:08AM 40.2925 -73.9219 44° Northeast 402 463 25,000  Level New York Center
10:09AM 40.4169 -73.7703 43° Northeast 407 468 25,000  Level Boston Center
10:10AM 40.5058 -73.6575 44° Northeast 402 463 25,000 -540 Level Boston Center
10:11AM 40.5858 -73.5578 43° Northeast 396 456 24,000 -1,500 Descending Boston Center
10:12AM 40.6639 -73.4578 44° Northeast 391 450 22,000 -1,980 Descending Boston Center
10:13AM 40.7439 -73.3686 40° Northeast 379 436 20,100 -1,500 Descending Boston Center
10:14AM 40.8114 -73.2847 43° Northeast 374 430 19,000 -600 Descending Boston Center
10:15AM 40.8892 -73.1950 41° Northeast 368 423 19,000 -60 Level Boston Center
10:16AM 40.9647 -73.1081 41° Northeast 363 418 18,900 -720 Descending Boston Center
10:17AM 41.0381 -73.0208 42° Northeast 358 412 17,600 -1,680 Descending Boston Center
10:18AM 41.1197 -72.9250 41° Northeast 358 412 15,600 -2,040 Descending Boston Center
10:19AM 41.1742 -72.8619 41° Northeast 356 410 14,100 -1,920 Descending Boston Center
10:20AM 41.2181 -72.8100 42° Northeast 354 407 13,000 -1,800 Descending Boston Center
10:20AM 41.2661 -72.7494 43° Northeast 358 412 11,900 -1,260 Descending Boston Center
10:21AM 41.3497 -72.7194 15° North 311 358 11,000 -720 Descending Boston Center
10:22AM 41.4247 -72.7419 347° North 294 338 10,500 -1,200 Descending Boston Center
10:23AM 41.5164 -72.7728 346° North 300 345 8,700 -1,680 Descending Boston Center
10:24AM 41.5911 -72.7953 347° North 300 345 7,200 -1,740 Descending Boston Center
10:25AM 41.6786 -72.8264 345° North 300 345 5,300 -1,500 Descending Boston Center
10:26AM 41.7536 -72.8519 346° North 294 338 4,300 -960 Descending Boston Center
10:27AM 41.8183 -72.8439 North 241 277 3,400 -900 Descending Boston Center
10:28AM 41.8581 -72.7942 43° Northeast 201 231 2,500 -1,020 Descending Boston Center
10:30AM 41.8978 -72.7442 43° Northeast 147 169 1,100 -960 Descending Boston Center
10:30AM 41.9167 -72.7219 41° Northeast 145 167 600 -480 Descending Boston Center
10:31AM 41.9417 -72.6914 42° Northeast 140 161 400 -240 Descending Boston Center
10:36AM 41.9333 -72.6833 223° Southwest  Level FlightAware Approximate
10:43AM 41.9392 -72.6834 223° Southwest  Level Estimated